< Typhoon 196501 1965 Season Typhoon 196503 >
Typhoon 196502 (RUTH)
General InformationTrack Information on Google Maps || Disaster Info.ResourceGoogle EarthGE AnimationAtom FeedGeoJSON
Detalied Best Track (Time Zone = UTC)
Year Month Day Hour Lat. Long. Pressure (hPa) Wind (kt) Class Image Chart
1965 1 20 18 7.0 150.5 1004 0 2 -- Chart
1965 1 21 00 7.5 148.7 1004 0 2 -- Chart
1965 1 21 06 8.5 147.0 1002 0 2 -- Chart
1965 1 21 12 9.5 145.5 1002 0 2 -- Chart
1965 1 21 18 10.7 144.0 1002 0 2 -- Chart
1965 1 22 00 11.8 142.5 1002 0 2 -- Chart
1965 1 22 06 12.5 140.7 998 0 9 -- Chart
1965 1 22 12 12.7 139.5 996 0 9 -- Chart
1965 1 22 18 13.0 138.0 994 0 9 -- Chart
1965 1 23 00 13.1 136.2 994 0 9 -- Chart
1965 1 23 06 14.2 138.3 995 0 9 -- Chart
1965 1 23 12 16.0 139.0 995 0 9 -- Chart
1965 1 23 18 17.5 139.8 995 0 2 -- Chart
1965 1 24 00 18.7 140.7 1000 0 2 -- Chart
1965 1 24 06 19.0 142.2 1000 0 2 -- Chart
1965 1 24 12 19.3 143.8 995 0 9 -- Chart
1965 1 24 18 20.1 146.0 995 0 9 -- Chart
1965 1 25 00 22.3 148.5 995 0 9 -- Chart
1965 1 25 06 23.3 152.5 995 0 9 -- Chart
1965 1 25 12 24.7 156.5 998 0 9 -- Chart
1965 1 25 18 26.0 161.0 998 0 9 -- Chart
1965 1 26 00 27.0 167.0 1004 0 2 -- Chart
1965 1 26 06 29.0 171.0 1004 0 6 -- Chart
1965 1 26 12 30.0 175.0 1006 0 6 -- Chart
1965 1 26 18 32.0 182.0 1008 0 6 -- Chart
Japan Meteorological Agency Best Track Data | Correction Date : 1989-06-01
< Typhoon 196501 1965 Season Typhoon 196503 >

Help